Airfield :
LOGIN :

Register | Disclaimer

   EN    FR    IT 

 










Legend :    VFR   Marginal VFR   IFR   Intensive IFR   Very Intensive IFR
Visi :
Ceiling :
>= 8 km
>= 3000ft
5 to 8 km
1000 to 3000 ft
1500m to 5 km
500 to 1000 ft
800 to 1500m
200 to 500 ft
< 800m
< 200 ft
Symbols :   Thunderstorms  Fog  Heavy snow  Heavy precipitations  Wind > 20 kt
SIGMETs :     Misc.  Thunderstorms  Icing  Turbulence  Mountain Waves  Volcanic Ashes






- Airport Elevation : 32 ft
- IATA code : LKZ


EGUL - RAF Lakenheath

CURRENT METAR :
  • 271303Z 32011G17KT 9999 FEW017 SCT022 SCT029 05/01 A2950 RMK SLP993 $

EXPIRED METARs :
  • 271155Z 31007KT 9999 FEW010 BKN028 04/03 A2947 RMK SNE04RAB04E10 SLP983 P0001 60014 70015 T00380034 10038 20003 52014 $
  • 271128Z 31008KT 9999 FEW005 BKN010 OVC015 02/02 A2947 RMK SNE04RAB04E10 SLP983 $
  • 271109Z 29007KT 9999 SCT004 SCT008 OVC012 02/02 A2946 RMK SNE04RAB04 SLP980 $
  • 271057Z 30005KT 9000 -SN SCT002 OVC010 01/01 A2946 RMK SLP980 P0001 T00100009 $

TAF TAF EGUL
Valid from the 27 at 13:00 until the 28 at 19:00 UTC


271300Z 2713/2819 30012G18KT 9999 SCT020 QNH2950INS
BECMG 2722/2723 26009KT 9999 FEW030 QNH2991INS
BECMG 2808/2809 16009KT 9999 BKN030 BKN070 620301 620709 QNH2980INS
BECMG 2811/2812 16012G18KT 8000 -RA BKN008 BKN012 QNH2970INS TX06/2715Z TN00/2804Z



MET'MAP, your aeronautical weather chart ! - Copyright ORBIFLY December 2007 - Disclaimer

ORBIFLY MET'MAP TEAM :

Programming & Development : Alexandra Zaïnal
Concept & original design : Baudouin d'Aumeries
Assistance for programming : Marc-Olivier Méhu
Technical & hardware support : Manuel Goepfert

Contact : metmap@orbifly.com




SOURCES & CREDITS :

   NOAA